Terminal Aerodrome Forecast
Issued by NWS

Current Version | Previous Version | Graphics & Text | Print | Product List | Glossary On
Versions: 1 2 3 4 5 6 7 8 9 10 11 12 13 14 15 16 17 18 19 20 21 22 23
193
FTUS41 KRLX 270905 AAA
TAFCKB
TAF AMD
KCKB 270905Z 2709/2806 19006KT P6SM VCSH OVC050
     FM271000 19004KT 6SM BR BKN025
     FM271400 23005KT P6SM BKN035
     FM280400 16003KT P6SM SHRA BKN070=

USA.gov is the U.S. government's official web portal to all federal, state and local government web resources and services.